Aérodrome :
LOGIN :

S'inscrire | Disclaimer

   EN    FR    IT 

 










Légende :    VFR   VFR Marginal   IFR   IFR Intensif   IFR Très Intensif
Visi : 
Plafond : 
>= 8 km
>= 3000ft
5 à 8 km
1000 à 3000 ft
1500m à 5 km
500 à 1000 ft
800 à 1500m
200 à 500 ft
< 800m
< 200 ft
Symboles :   Orages  Brouillard  Fortes neiges  Fortes précipitations  Vent > 20 kt
SIGMETs :   Divers  Orages  Givrage  Turbulence  Onde Orograph.  Cendres Volcan.






- Altitude de l'aérodrome : 686 ft


LYKV - Ladevci

DERNIER METAR :
  • 290600Z 00000KT 9999 FEW003 BKN065 13/13 Q1014 NOSIG

METARs EXPIRÉS :
  • 290530Z 00000KT 9999 FEW003 BKN065 12/12 Q1014 NOSIG
  • 290500Z 00000KT 9999 BKN070 11/11 Q1014 NOSIG
  • 290430Z 00000KT 7000 NSC 11/11 Q1013 NOSIG
  • 290400Z 00000KT 6000 NSC 11/11 Q1013 NOSIG

TAF TAF LYKV
Valide du 29 à 06h jusqu'au 30 à 06h UTC


290500Z 2906/3006 31006KT 9999 BKN040 TX17/2913Z TN10/3004Z
TEMPO 2910/2915 32010KT 4000 TSRA SCT015 SCT027CB BKN030



MET'MAP, la Météo Aéronautique d'un coup d'oeil ! - Copyright ORBIFLY Décembre 2007 - Disclaimer

ORBIFLY MET'MAP TEAM :

Programmation & Développement : Alexandra Zaïnal
Sur une idée originale de : Baudouin d'Aumeries
Assistance à la programmation : Marc-Olivier Méhu
Soutien technique & logistique : Manuel Goepfert

Contact : metmap@orbifly.com




SOURCES & CREDITS :

   NOAA